States of Jersey

Home Log in

METAR EGJJ 181050Z 16018KT CAVOK 05/M00 Q1016

METAR EGJB 181050Z 17018KT CAVOK 06/M01 Q1015

METAR EGJA 181020Z 17018KT 9999 FEW028 06/M01 Q1016

METAR LFRD 181030Z AUTO 16010KT CAVOK 04/M02 Q1017 BECMG 16015G25KT

METAR LFRC 181030Z AUTO 17012KT CAVOK 04/M03 Q1017 NOSIG